Time;durP1;ratioP1;P1;durP2;ratioP2;P2;SDS_P1;SDS_P2;PMS_P1;PMS_P2;Temp;Humidity;BMP_temperature;BMP_pressure;BME280_temperature;BME280_humidity;BME280_pressure;Samples;Min_cycle;Max_cycle;Signal;HPM_P1;HPM_P2
2022/07/13 00:02:14;;;;;;;2.47;1.30;;;19.10;99.90;;;;;;5069511;28;20131;-56
2022/07/13 00:04:40;;;;;;;3.35;1.10;;;19.10;99.90;;;;;;5069211;28;20131;-56
2022/07/13 00:07:05;;;;;;;3.60;1.30;;;19.10;99.90;;;;;;5070044;28;20041;-56
2022/07/13 00:09:31;;;;;;;5.53;1.30;;;19.20;99.90;;;;;;5069497;28;20124;-56
2022/07/13 00:11:57;;;;;;;5.55;1.80;;;19.10;99.90;;;;;;5069238;28;20068;-56
2022/07/13 00:14:23;;;;;;;3.25;1.10;;;19.20;99.90;;;;;;5063391;28;20407;-56
2022/07/13 00:16:48;;;;;;;2.97;1.20;;;19.20;99.90;;;;;;5069102;28;20088;-56
2022/07/13 00:19:14;;;;;;;3.03;1.38;;;18.30;99.90;;;;;;5069578;28;20037;-56
2022/07/13 00:21:40;;;;;;;6.18;1.30;;;19.20;99.90;;;;;;5069119;28;20091;-56
2022/07/13 00:24:05;;;;;;;1.73;1.02;;;19.10;99.90;;;;;;5069534;28;20128;-57
2022/07/13 00:26:31;;;;;;;4.53;1.70;;;19.00;99.90;;;;;;5069155;28;20402;-56
2022/07/13 00:28:57;;;;;;;2.55;1.80;;;19.10;99.90;;;;;;5069108;28;20115;-56
2022/07/13 00:31:22;;;;;;;2.95;1.80;;;18.90;99.90;;;;;;5068669;28;20183;-57
2022/07/13 00:33:48;;;;;;;2.50;1.85;;;18.80;99.90;;;;;;5069189;28;20052;-56
2022/07/13 00:36:13;;;;;;;5.05;1.38;;;18.70;99.90;;;;;;5069102;28;20036;-56
2022/07/13 00:38:39;;;;;;;1.80;1.33;;;18.90;99.90;;;;;;5068688;28;20087;-56
2022/07/13 00:41:05;;;;;;;4.63;1.88;;;18.70;99.90;;;;;;5069016;28;20134;-56
2022/07/13 00:43:31;;;;;;;2.85;1.85;;;18.70;99.90;;;;;;5068846;28;20040;-57
2022/07/13 00:45:57;;;;;;;2.60;1.55;;;18.70;99.90;;;;;;5067885;28;20041;-56
2022/07/13 00:48:23;;;;;;;3.05;2.30;;;18.70;99.90;;;;;;5068400;28;20544;-56
2022/07/13 00:50:50;;;;;;;2.63;2.03;;;18.80;99.90;;;;;;5068441;28;20086;-56
2022/07/13 00:53:16;;;;;;;4.10;2.42;;;18.80;99.90;;;;;;5068612;28;20044;-56
2022/07/13 00:55:43;;;;;;;4.40;2.10;;;18.90;99.90;;;;;;5068316;28;20044;-56
2022/07/13 00:58:09;;;;;;;3.42;2.35;;;18.80;99.90;;;;;;5068637;28;20218;-56
2022/07/13 01:00:36;;;;;;;7.00;2.88;;;18.90;99.90;;;;;;5068082;28;20083;-56
2022/07/13 01:03:02;;;;;;;7.75;2.90;;;18.90;99.90;;;;;;5068245;28;20096;-56
2022/07/13 01:05:28;;;;;;;3.28;2.75;;;18.90;99.90;;;;;;5068182;28;20049;-56
2022/07/13 01:07:54;;;;;;;4.40;2.83;;;19.20;99.90;;;;;;5068131;28;20379;-56
2022/07/13 01:10:21;;;;;;;4.68;3.05;;;18.70;99.90;;;;;;5068221;28;20055;-56
2022/07/13 01:12:46;;;;;;;4.15;3.20;;;19.00;99.90;;;;;;5067788;28;20455;-56
2022/07/13 01:15:12;;;;;;;5.75;3.55;;;19.00;99.90;;;;;;5068369;28;20051;-56
2022/07/13 01:17:38;;;;;;;6.30;3.75;;;19.00;99.90;;;;;;5067916;28;20048;-56
2022/07/13 01:20:06;;;;;;;6.07;3.40;;;19.00;99.90;;;;;;5068157;28;20363;-56
2022/07/13 01:22:44;;;;;;;5.85;3.60;;;19.00;99.90;;;;;;5068347;28;20390;-56
2022/07/13 01:25:10;;;;;;;3.85;3.42;;;19.00;99.90;;;;;;5068054;28;20121;-56
2022/07/13 01:27:38;;;;;;;4.30;3.75;;;19.00;99.90;;;;;;5068395;28;20040;-56
2022/07/13 01:30:05;;;;;;;4.10;3.50;;;19.00;99.90;;;;;;5068574;28;20390;-56
2022/07/13 01:32:51;;;;;;;5.68;3.95;;;19.00;99.90;;;;;;5068725;28;20055;-56
2022/07/13 01:35:19;;;;;;;5.75;4.88;;;19.10;99.90;;;;;;5068071;28;20063;-56
2022/07/13 01:37:45;;;;;;;4.90;4.38;;;19.10;99.90;;;;;;5067994;28;20044;-56
2022/07/13 01:40:12;;;;;;;5.15;4.38;;;19.10;99.90;;;;;;5068203;28;20059;-56
2022/07/13 01:42:43;;;;;;;4.57;4.10;;;19.10;99.90;;;;;;5066918;28;20052;-56
2022/07/13 01:45:10;;;;;;;5.73;5.20;;;19.10;99.90;;;;;;5067904;28;20421;-56
2022/07/13 01:47:40;;;;;;;5.75;4.50;;;19.10;99.90;;;;;;5067799;28;20271;-56
2022/07/13 01:50:07;;;;;;;6.03;4.95;;;19.00;99.90;;;;;;5067650;28;20051;-56
2022/07/13 01:52:35;;;;;;;4.72;4.15;;;19.00;99.90;;;;;;5067883;28;20111;-56
2022/07/13 01:55:05;;;;;;;6.00;4.88;;;18.90;99.90;;;;;;5067693;28;20052;-56
2022/07/13 01:57:31;;;;;;;6.38;5.35;;;18.80;99.90;;;;;;5068086;28;20474;-56
2022/07/13 02:00:15;;;;;;;6.20;5.13;;;18.80;99.90;;;;;;5067968;28;20113;-56
2022/07/13 02:02:41;;;;;;;6.60;5.65;;;18.80;99.90;;;;;;5068047;28;20044;-57
2022/07/13 02:05:09;;;;;;;6.97;6.28;;;18.70;99.90;;;;;;5067459;28;20102;-56
2022/07/13 02:07:35;;;;;;;6.65;5.95;;;18.70;99.90;;;;;;5067720;28;20428;-56
2022/07/13 02:10:01;;;;;;;7.25;6.55;;;18.70;99.90;;;;;;5066813;28;20409;-56
2022/07/13 02:12:27;;;;;;;8.57;6.68;;;18.70;99.90;;;;;;5067262;28;20047;-56
2022/07/13 02:14:53;;;;;;;9.95;6.82;;;18.70;99.90;;;;;;5066806;28;20060;-56
2022/07/13 02:17:18;;;;;;;8.55;6.75;;;18.70;99.90;;;;;;5067416;28;20048;-56
2022/07/13 02:19:44;;;;;;;7.90;7.10;;;18.70;99.90;;;;;;5067249;28;20040;-56
2022/07/13 02:22:10;;;;;;;8.43;7.60;;;18.70;99.90;;;;;;5067134;28;20040;-56
2022/07/13 02:24:36;;;;;;;7.28;6.38;;;18.80;99.90;;;;;;5067343;28;20044;-56
2022/07/13 02:27:02;;;;;;;8.25;7.22;;;18.80;99.90;;;;;;5067172;28;20037;-56
2022/07/13 02:29:28;;;;;;;8.90;6.85;;;18.90;99.90;;;;;;5067298;28;20047;-56
2022/07/13 02:31:53;;;;;;;7.55;6.70;;;18.90;99.90;;;;;;5067163;28;20041;-56
2022/07/13 02:34:19;;;;;;;8.05;7.35;;;19.00;99.90;;;;;;5067074;28;20474;-56
2022/07/13 02:36:45;;;;;;;7.93;7.13;;;19.00;99.90;;;;;;5067139;28;20458;-56
2022/07/13 02:39:10;;;;;;;7.38;6.78;;;19.00;99.90;;;;;;5067077;28;20115;-56
2022/07/13 02:41:36;;;;;;;7.60;6.60;;;18.90;99.90;;;;;;5067115;28;20358;-56
2022/07/13 02:44:02;;;;;;;7.53;6.72;;;18.80;99.90;;;;;;5066744;28;20044;-56
2022/07/13 02:46:27;;;;;;;8.02;7.32;;;18.80;99.90;;;;;;5066930;28;20045;-56
2022/07/13 02:48:53;;;;;;;7.47;6.70;;;18.80;99.90;;;;;;5066992;28;20036;-56
2022/07/13 02:51:19;;;;;;;8.27;7.35;;;18.80;99.90;;;;;;5067625;28;20094;-56
2022/07/13 02:53:44;;;;;;;7.88;7.18;;;18.80;99.90;;;;;;5068640;28;20090;-56
2022/07/13 02:56:10;;;;;;;8.32;6.93;;;18.80;99.90;;;;;;5070342;28;20059;-56
2022/07/13 02:58:36;;;;;;;10.23;7.10;;;18.70;99.90;;;;;;5070859;28;20048;-56
2022/07/13 03:01:01;;;;;;;7.55;6.70;;;18.70;99.90;;;;;;5070694;28;20119;-56
2022/07/13 03:03:27;;;;;;;7.53;6.90;;;18.70;99.90;;;;;;5053010;28;20040;-56
2022/07/13 03:05:52;;;;;;;7.82;6.63;;;18.70;99.90;;;;;;5070965;28;20097;-56
2022/07/13 03:08:18;;;;;;;7.75;6.93;;;18.70;99.90;;;;;;5070443;28;20055;-56
2022/07/13 03:10:45;;;;;;;8.15;7.35;;;18.70;99.90;;;;;;5052415;28;20045;-57
2022/07/13 03:13:11;;;;;;;7.93;7.13;;;19.00;99.90;;;;;;5054866;28;20060;-56
2022/07/13 03:15:37;;;;;;;7.82;6.32;;;18.70;99.90;;;;;;5070779;28;20398;-56
2022/07/13 03:18:03;;;;;;;8.23;7.43;;;18.70;99.90;;;;;;5069922;28;20044;-56
2022/07/13 03:20:28;;;;;;;7.88;7.07;;;18.70;99.90;;;;;;5070437;28;20087;-56
2022/07/13 03:22:54;;;;;;;8.13;7.32;;;18.60;99.90;;;;;;5070274;28;20133;-56
2022/07/13 03:25:20;;;;;;;8.32;7.32;;;18.70;99.90;;;;;;5070186;28;20102;-56
2022/07/13 03:27:45;;;;;;;7.88;6.43;;;18.70;99.90;;;;;;5070171;28;20040;-56
2022/07/13 03:30:11;;;;;;;7.32;6.57;;;18.70;99.90;;;;;;5070005;28;20045;-56
2022/07/13 03:32:37;;;;;;;7.53;6.50;;;18.60;99.90;;;;;;5070339;28;20110;-56
2022/07/13 03:35:03;;;;;;;7.43;6.20;;;18.70;99.90;;;;;;5070186;28;20379;-56
2022/07/13 03:37:28;;;;;;;8.40;7.03;;;18.70;99.90;;;;;;5069959;28;20048;-56
2022/07/13 03:39:54;;;;;;;9.00;7.20;;;18.80;99.90;;;;;;5069953;28;20148;-56
2022/07/13 03:42:20;;;;;;;7.82;6.68;;;18.70;99.90;;;;;;5069929;28;20041;-56
2022/07/13 03:44:45;;;;;;;10.05;6.93;;;18.70;99.90;;;;;;5070012;28;20478;-56
2022/07/13 03:47:11;;;;;;;8.65;7.80;;;18.70;99.90;;;;;;5069715;28;20044;-56
2022/07/13 03:49:39;;;;;;;8.60;7.40;;;18.70;99.90;;;;;;5070003;28;20058;-56
2022/07/13 03:52:05;;;;;;;8.50;7.32;;;18.70;99.90;;;;;;5069405;28;20127;-56
2022/07/13 03:54:31;;;;;;;9.65;7.82;;;18.70;99.90;;;;;;5069431;28;20123;-56
2022/07/13 03:56:57;;;;;;;9.98;7.63;;;18.70;99.90;;;;;;5069826;28;20495;-56
2022/07/13 03:59:23;;;;;;;7.40;6.80;;;18.70;99.90;;;;;;5069662;28;20115;-56
2022/07/13 04:01:48;;;;;;;8.40;7.22;;;18.70;99.90;;;;;;5068536;28;20534;-56
2022/07/13 04:04:14;;;;;;;8.40;6.53;;;18.70;99.90;;;;;;5069047;28;20486;-56
2022/07/13 04:06:40;;;;;;;7.90;6.68;;;18.70;99.90;;;;;;5068967;28;20456;-56
2022/07/13 04:09:05;;;;;;;7.25;6.55;;;18.70;99.90;;;;;;5069213;28;20044;-56
2022/07/13 04:11:31;;;;;;;7.38;6.13;;;19.00;99.90;;;;;;5068980;28;20048;-56
2022/07/13 04:13:56;;;;;;;7.63;5.82;;;18.60;99.90;;;;;;5069162;28;20498;-56
2022/07/13 04:16:22;;;;;;;7.47;6.55;;;18.60;99.90;;;;;;5069623;28;20118;-56
2022/07/13 04:18:48;;;;;;;6.75;6.07;;;18.70;99.90;;;;;;5069276;28;20055;-56
2022/07/13 04:21:14;;;;;;;9.48;6.25;;;18.70;99.90;;;;;;5069363;28;20041;-56
2022/07/13 04:23:40;;;;;;;7.03;6.10;;;18.70;99.90;;;;;;5069368;28;20103;-56
2022/07/13 04:26:06;;;;;;;6.93;6.22;;;18.70;99.90;;;;;;5069247;28;20046;-56
2022/07/13 04:28:32;;;;;;;7.22;6.40;;;18.70;99.90;;;;;;5069345;28;20098;-56
2022/07/13 04:30:58;;;;;;;6.68;6.00;;;18.80;99.90;;;;;;5068948;28;20044;-56
2022/07/13 04:33:23;;;;;;;6.15;5.55;;;18.80;99.90;;;;;;5068639;28;20128;-56
2022/07/13 04:35:49;;;;;;;6.95;6.22;;;18.80;99.90;;;;;;5069664;28;20087;-56
2022/07/13 04:38:15;;;;;;;9.98;6.63;;;18.90;99.90;;;;;;5068945;28;20070;-56
2022/07/13 04:40:40;;;;;;;6.65;5.85;;;18.90;99.90;;;;;;5068900;28;20402;-56
2022/07/13 04:43:07;;;;;;;5.88;5.38;;;19.00;99.90;;;;;;5068706;28;20114;-56
2022/07/13 04:45:32;;;;;;;7.32;5.53;;;19.00;99.90;;;;;;5068823;28;20045;-56
2022/07/13 04:48:01;;;;;;;6.72;5.97;;;19.00;99.90;;;;;;5067392;28;20040;-56
2022/07/13 04:50:27;;;;;;;6.78;6.07;;;19.00;99.90;;;;;;5068912;28;20044;-56
2022/07/13 04:52:52;;;;;;;8.10;6.10;;;19.10;99.90;;;;;;5068884;28;20391;-56
2022/07/13 04:55:18;;;;;;;5.85;5.25;;;19.10;99.90;;;;;;5068239;28;20621;-56
2022/07/13 04:57:44;;;;;;;6.78;5.82;;;19.10;99.90;;;;;;5068498;28;20079;-56
2022/07/13 05:00:11;;;;;;;7.25;5.75;;;19.20;99.90;;;;;;5068501;28;20402;-56
2022/07/13 05:02:38;;;;;;;8.00;5.93;;;19.30;99.90;;;;;;5068374;28;20036;-56
2022/07/13 05:05:04;;;;;;;5.45;4.95;;;19.30;99.90;;;;;;5068500;28;20056;-56
2022/07/13 05:07:30;;;;;;;6.68;6.03;;;19.30;99.90;;;;;;5068185;28;20044;-57
2022/07/13 05:09:56;;;;;;;6.07;5.47;;;19.30;99.90;;;;;;5067793;28;20048;-56
2022/07/13 05:12:22;;;;;;;6.03;5.22;;;19.30;99.90;;;;;;5068130;28;20367;-56
2022/07/13 05:14:48;;;;;;;7.38;5.70;;;19.40;99.90;;;;;;5067851;28;20063;-56
2022/07/13 05:17:14;;;;;;;6.80;5.78;;;18.70;99.90;;;;;;5067940;28;20122;-56
2022/07/13 05:19:39;;;;;;;7.03;5.85;;;19.50;99.90;;;;;;5067966;28;20044;-56
2022/07/13 05:22:05;;;;;;;8.52;5.88;;;19.50;99.90;;;;;;5068048;28;20048;-56
2022/07/13 05:24:31;;;;;;;6.43;5.20;;;19.60;99.90;;;;;;5067737;28;20054;-56
2022/07/13 05:26:56;;;;;;;5.82;5.07;;;19.60;99.90;;;;;;5068679;28;20036;-56
2022/07/13 05:29:22;;;;;;;5.63;5.13;;;19.60;99.90;;;;;;5066656;28;20501;-56
2022/07/13 05:31:48;;;;;;;6.57;4.82;;;19.70;99.90;;;;;;5068131;28;20036;-56
2022/07/13 05:34:14;;;;;;;8.30;5.03;;;19.80;99.90;;;;;;5067383;28;20115;-56
2022/07/13 05:36:40;;;;;;;5.57;5.00;;;19.80;99.90;;;;;;5068025;28;20055;-56
2022/07/13 05:39:06;;;;;;;6.60;4.38;;;19.90;99.90;;;;;;5067906;28;20040;-56
2022/07/13 05:41:32;;;;;;;4.70;3.78;;;19.90;99.90;;;;;;5067895;28;20054;-56
2022/07/13 05:43:59;;;;;;;5.25;4.65;;;20.00;99.90;;;;;;5067749;28;20044;-56
2022/07/13 05:46:26;;;;;;;5.43;4.10;;;20.10;99.90;;;;;;5067307;28;20773;-56
2022/07/13 05:48:51;;;;;;;6.07;3.80;;;20.20;99.90;;;;;;5067304;28;20041;-56
2022/07/13 05:51:17;;;;;;;4.43;4.03;;;20.30;99.90;;;;;;5067547;28;20045;-56
2022/07/13 05:53:43;;;;;;;3.58;3.28;;;20.50;99.90;;;;;;5066074;28;20032;-56
2022/07/13 05:56:09;;;;;;;4.47;4.07;;;20.50;99.90;;;;;;5067657;28;20509;-57
2022/07/13 05:58:35;;;;;;;7.95;4.10;;;20.70;99.90;;;;;;5067599;28;20040;-56
2022/07/13 06:01:01;;;;;;;4.70;4.30;;;20.80;99.90;;;;;;5067675;28;20098;-56
2022/07/13 06:03:26;;;;;;;3.97;3.58;;;20.90;99.90;;;;;;5067644;28;20032;-56
2022/07/13 06:05:52;;;;;;;3.72;3.30;;;21.00;99.90;;;;;;5067747;28;20040;-56
2022/07/13 06:08:18;;;;;;;4.32;3.60;;;21.20;99.90;;;;;;5067419;28;20850;-56
2022/07/13 06:10:44;;;;;;;4.45;4.05;;;21.30;99.90;;;;;;5066402;28;20036;-56
2022/07/13 06:13:10;;;;;;;4.22;3.83;;;21.40;99.90;;;;;;5067373;28;20052;-56
2022/07/13 06:15:36;;;;;;;4.50;3.17;;;21.70;99.90;;;;;;5067423;28;20048;-57
2022/07/13 06:18:02;;;;;;;5.25;3.83;;;21.90;99.90;;;;;;5067621;28;20041;-56
2022/07/13 06:20:28;;;;;;;3.83;3.42;;;22.20;99.90;;;;;;5067049;28;20398;-56
2022/07/13 06:23:12;;;;;;;3.47;2.78;;;22.30;99.40;;;;;;5067396;28;20402;-56
2022/07/13 06:25:41;;;;;;;5.50;3.33;;;22.70;99.40;;;;;;5066975;28;20052;-56
2022/07/13 06:28:07;;;;;;;4.70;2.85;;;23.10;98.40;;;;;;5069303;28;20056;-56
2022/07/13 06:30:34;;;;;;;7.30;2.95;;;23.30;97.90;;;;;;5073548;28;20374;-56
2022/07/13 06:33:00;;;;;;;6.88;3.25;;;23.40;97.30;;;;;;5073778;28;20447;-57
2022/07/13 06:35:26;;;;;;;5.30;3.10;;;23.60;96.80;;;;;;5073552;28;20040;-56
2022/07/13 06:37:52;;;;;;;3.08;2.78;;;23.80;96.20;;;;;;5073585;28;20044;-57
2022/07/13 06:40:18;;;;;;;3.97;2.90;;;24.00;95.60;;;;;;5072945;28;20036;-56
2022/07/13 06:42:44;;;;;;;3.65;2.67;;;24.20;95.20;;;;;;5074354;28;20490;-57
2022/07/13 06:45:10;;;;;;;4.15;3.08;;;24.30;94.80;;;;;;5073912;28;20147;-57
2022/07/13 06:47:36;;;;;;;3.60;2.75;;;24.60;94.60;;;;;;5074274;28;20146;-57
2022/07/13 06:50:03;;;;;;;2.85;2.58;;;24.80;94.10;;;;;;5073938;28;20093;-56
2022/07/13 06:52:28;;;;;;;3.50;2.42;;;25.30;93.60;;;;;;5074106;28;20067;-56
2022/07/13 06:54:54;;;;;;;3.40;2.40;;;25.80;93.60;;;;;;5074159;28;20052;-57
2022/07/13 06:57:19;;;;;;;3.70;2.80;;;26.40;92.00;;;;;;5073648;28;20076;-57
2022/07/13 06:59:45;;;;;;;3.47;2.45;;;26.70;91.10;;;;;;5074082;28;20152;-57
2022/07/13 07:02:11;;;;;;;3.47;3.00;;;26.90;90.10;;;;;;5073880;28;20044;-56
2022/07/13 07:04:36;;;;;;;4.63;3.80;;;27.00;88.70;;;;;;5073525;28;20080;-56
2022/07/13 07:07:02;;;;;;;7.15;3.67;;;27.20;87.10;;;;;;5072198;28;20102;-56
2022/07/13 07:09:28;;;;;;;4.70;4.05;;;27.60;86.30;;;;;;5072734;28;20101;-56
2022/07/13 07:11:54;;;;;;;4.50;3.80;;;27.70;85.40;;;;;;5073748;28;20440;-56
2022/07/13 07:14:20;;;;;;;5.97;4.32;;;28.00;85.20;;;;;;5073143;28;20053;-56
2022/07/13 07:16:45;;;;;;;5.10;3.90;;;28.00;83.80;;;;;;5073525;28;20438;-56
2022/07/13 07:19:11;;;;;;;5.95;4.00;;;27.90;83.10;;;;;;5073833;28;20040;-56
2022/07/13 07:21:37;;;;;;;5.75;4.05;;;27.80;82.70;;;;;;5073265;28;20052;-56
2022/07/13 07:24:03;;;;;;;5.50;4.65;;;27.80;82.30;;;;;;5073382;28;20055;-56
2022/07/13 07:26:30;;;;;;;5.03;4.53;;;28.10;81.80;;;;;;5072926;28;20090;-56
2022/07/13 07:28:56;;;;;;;4.43;3.92;;;28.90;80.20;;;;;;5072923;28;20045;-56
2022/07/13 07:31:23;;;;;;;5.53;3.78;;;30.60;77.50;;;;;;5072739;28;20147;-56
2022/07/13 07:33:49;;;;;;;4.07;3.63;;;31.90;75.60;;;;;;5072756;28;20052;-56
2022/07/13 07:36:16;;;;;;;4.55;3.55;;;32.90;77.90;;;;;;5073221;28;20045;-56
2022/07/13 07:38:45;;;;;;;4.05;2.95;;;33.30;79.20;;;;;;5072857;28;20048;-56
2022/07/13 07:41:11;;;;;;;3.78;2.60;;;33.20;75.60;;;;;;5068314;28;20486;-56
2022/07/13 07:43:39;;;;;;;4.93;3.50;;;33.20;76.70;;;;;;5069882;28;20056;-56
2022/07/13 07:46:05;;;;;;;5.60;3.17;;;33.20;76.10;;;;;;5070282;28;20432;-56
2022/07/13 07:48:31;;;;;;;5.45;3.13;;;32.90;75.90;;;;;;5070171;28;20036;-56
2022/07/13 07:50:58;;;;;;;5.00;3.05;;;33.10;75.80;;;;;;5068515;28;20044;-56
2022/07/13 07:53:24;;;;;;;3.95;2.83;;;33.00;75.10;;;;;;5069962;28;20052;-56
2022/07/13 07:55:50;;;;;;;4.13;3.00;;;33.00;74.90;;;;;;5069938;28;20044;-56
2022/07/13 07:58:15;;;;;;;4.45;3.22;;;32.80;74.40;;;;;;5070496;28;20044;-56
2022/07/13 08:00:42;;;;;;;5.88;3.83;;;33.90;73.50;;;;;;5069893;28;20047;-56
2022/07/13 08:03:09;;;;;;;3.03;2.38;;;35.20;61.80;;;;;;5070077;28;20131;-56
2022/07/13 08:05:35;;;;;;;4.80;2.90;;;35.50;61.10;;;;;;5069813;28;20080;-56
2022/07/13 08:08:01;;;;;;;3.60;2.90;;;35.80;60.10;;;;;;5070172;28;20500;-56
2022/07/13 08:10:27;;;;;;;4.50;3.47;;;35.60;60.30;;;;;;5067358;28;20036;-56
2022/07/13 08:12:53;;;;;;;4.10;3.25;;;35.70;59.30;;;;;;5070050;28;20386;-57
2022/07/13 08:15:20;;;;;;;4.45;3.05;;;36.00;58.80;;;;;;5069671;28;20503;-57
2022/07/13 08:17:46;;;;;;;3.75;2.75;;;36.30;58.50;;;;;;5069542;28;20464;-57
2022/07/13 08:20:12;;;;;;;5.32;2.83;;;37.20;57.60;;;;;;5069274;28;20029;-56
2022/07/13 08:22:38;;;;;;;4.32;2.88;;;37.80;56.20;;;;;;5069481;28;20041;-56
2022/07/13 08:25:04;;;;;;;4.68;2.58;;;38.20;55.20;;;;;;5069075;28;20052;-58
2022/07/13 08:27:30;;;;;;;4.78;2.50;;;38.70;54.40;;;;;;5069534;28;20044;-57
2022/07/13 08:29:56;;;;;;;4.65;2.88;;;39.50;53.50;;;;;;5069386;28;20034;-57
2022/07/13 08:32:22;;;;;;;3.40;2.50;;;40.40;52.30;;;;;;5069342;28;20044;-56
2022/07/13 08:40:19;;;;;;;3.90;2.88;;;42.70;49.30;;;;;;5068964;28;20083;-57
2022/07/13 08:42:45;;;;;;;3.28;2.72;;;43.30;48.30;;;;;;5069242;28;20033;-57
2022/07/13 08:45:11;;;;;;;4.20;2.80;;;43.80;47.50;;;;;;5068860;28;20056;-57
2022/07/13 08:47:38;;;;;;;3.65;2.70;;;44.20;46.90;;;;;;5068233;28;20036;-57
2022/07/13 08:50:06;;;;;;;3.75;2.47;;;;;;;;;;5069423;28;20048;-57
2022/07/13 08:52:36;;;;;;;2.88;2.17;;;45.10;44.70;;;;;;5068221;28;20047;-57
2022/07/13 08:55:05;;;;;;;4.22;2.20;;;45.40;44.90;;;;;;5068932;28;20048;-57
2022/07/13 08:57:36;;;;;;;4.10;2.40;;;45.80;44.80;;;;;;5068376;28;20435;-57
2022/07/13 09:00:07;;;;;;;3.85;2.55;;;46.00;45.00;;;;;;5068048;28;20048;-57
2022/07/13 09:02:33;;;;;;;8.40;4.70;;;46.40;43.70;;;;;;5068202;28;20049;-57
2022/07/13 09:05:03;;;;;;;3.83;2.20;;;46.90;43.50;;;;;;5069013;28;20044;-57
2022/07/13 09:07:29;;;;;;;;;;;47.30;43.90;;;;;;5069208;28;20048;-57
2022/07/13 09:09:59;;;;;;;2.67;1.70;;;47.70;45.60;;;;;;5068308;28;19985;-57
2022/07/13 09:12:26;;;;;;;3.55;2.42;;;48.00;42.30;;;;;;5068930;28;20089;-55
2022/07/13 09:15:00;;;;;;;5.40;2.90;;;47.90;41.50;;;;;;5066725;28;20673;-55
2022/07/13 09:17:30;;;;;;;4.93;3.03;;;48.10;41.00;;;;;;5066771;28;20101;-55
2022/07/13 09:20:03;;;;;;;5.13;3.03;;;48.20;40.60;;;;;;5068219;28;20478;-55
2022/07/13 09:22:29;;;;;;;3.42;1.92;;;48.50;41.00;;;;;;5068664;28;20098;-55
2022/07/13 09:24:55;;;;;;;4.13;2.40;;;48.50;40.70;;;;;;5068155;28;20052;-55
2022/07/13 09:27:23;;;;;;;3.45;2.03;;;48.80;41.00;;;;;;5068292;28;20067;-55
2022/07/13 09:29:49;;;;;;;4.65;1.70;;;48.90;40.60;;;;;;5067814;28;20132;-55
2022/07/13 09:32:15;;;;;;;3.15;1.60;;;48.80;40.20;;;;;;5067148;28;20123;-55
2022/07/13 09:34:47;;;;;;;2.97;1.60;;;49.00;40.40;;;;;;5067087;28;20044;-55
2022/07/13 09:37:15;;;;;;;3.75;1.50;;;49.10;39.10;;;;;;5068025;28;20040;-55
2022/07/13 09:40:07;;;;;;;4.70;1.42;;;49.30;39.00;;;;;;5065775;28;20040;-56
2022/07/13 09:42:37;;;;;;;1.83;1.23;;;49.40;40.40;;;;;;5068006;28;20041;-56
2022/07/13 09:47:55;;;;;;;3.45;1.10;;;49.10;39.10;;;;;;5067943;28;20053;-56
2022/07/13 09:50:37;;;;;;;3.25;1.40;;;48.90;39.40;;;;;;5067678;28;20486;-56
2022/07/13 09:53:22;;;;;;;3.00;0.98;;;49.00;39.20;;;;;;5067665;28;20084;-56
2022/07/13 09:55:50;;;;;;;4.43;0.77;;;48.80;39.60;;;;;;5052122;28;20040;-56
2022/07/13 09:58:28;;;;;;;3.08;0.68;;;48.80;38.40;;;;;;5068172;28;20432;-56
2022/07/13 10:00:56;;;;;;;1.65;0.70;;;48.80;38.60;;;;;;5067876;28;20454;-56
2022/07/13 10:03:25;;;;;;;1.30;0.60;;;48.80;38.70;;;;;;5066986;28;20040;-56
2022/07/13 10:05:53;;;;;;;2.67;0.50;;;48.50;38.60;;;;;;5065281;28;20520;-55
2022/07/13 10:08:19;;;;;;;2.45;0.52;;;48.20;38.40;;;;;;5067688;28;20040;-55
2022/07/13 10:10:46;;;;;;;1.35;0.50;;;47.70;38.30;;;;;;5066893;28;20123;-56
2022/07/13 10:13:13;;;;;;;1.92;0.47;;;47.80;38.60;;;;;;5066694;28;20056;-56
2022/07/13 10:15:40;;;;;;;2.22;0.47;;;47.80;38.40;;;;;;5067184;28;20292;-56
2022/07/13 10:18:09;;;;;;;2.15;0.40;;;47.70;38.70;;;;;;5067357;28;20379;-56
2022/07/13 10:20:38;;;;;;;2.40;0.38;;;47.70;38.60;;;;;;5067603;28;20051;-56
2022/07/13 10:23:04;;;;;;;3.53;0.70;;;47.90;38.40;;;;;;5066236;28;20044;-56
2022/07/13 10:25:45;;;;;;;2.53;0.40;;;47.90;38.10;;;;;;5068021;28;20045;-56
2022/07/13 10:28:12;;;;;;;8.18;2.33;;;47.80;37.70;;;;;;5067921;28;20387;-56
2022/07/13 10:30:38;;;;;;;2.42;0.47;;;47.70;37.30;;;;;;5067924;28;20097;-56
2022/07/13 10:33:25;;;;;;;3.05;0.68;;;47.70;37.80;;;;;;5067842;28;20090;-56
2022/07/13 10:35:53;;;;;;;1.42;0.40;;;47.70;38.10;;;;;;5067771;28;20453;-56
2022/07/13 10:38:33;;;;;;;1.67;0.30;;;47.50;38.00;;;;;;5067182;28;20051;-56
2022/07/13 10:41:21;;;;;;;4.15;0.50;;;47.20;38.10;;;;;;5066782;28;20058;-55
2022/07/13 10:43:54;;;;;;;2.00;0.50;;;46.90;37.00;;;;;;5067789;28;20040;-56
2022/07/13 10:46:45;;;;;;;3.10;0.50;;;46.80;37.70;;;;;;5067755;28;20068;-55
2022/07/13 10:49:30;;;;;;;3.67;0.68;;;46.90;38.90;;;;;;5067564;28;20072;-55
2022/07/13 10:51:57;;;;;;;2.05;0.50;;;46.70;38.10;;;;;;5067112;28;20040;-55
2022/07/13 10:54:23;;;;;;;1.48;0.50;;;46.50;37.10;;;;;;5067733;28;20041;-57
2022/07/13 10:57:12;;;;;;;2.40;0.70;;;46.10;37.70;;;;;;5066561;28;20059;-57
2022/07/13 10:59:49;;;;;;;2.05;0.55;;;44.80;38.80;;;;;;5067666;28;20123;-56
2022/07/13 11:02:50;;;;;;;3.42;0.60;;;43.00;39.50;;;;;;5067503;28;20541;-56
2022/07/13 11:05:19;;;;;;;1.23;0.40;;;41.40;40.80;;;;;;5067661;28;20075;-56
2022/07/13 11:07:48;;;;;;;1.98;0.82;;;40.00;42.80;;;;;;5067921;28;20040;-56
2022/07/13 11:10:30;;;;;;;1.35;0.77;;;38.80;43.90;;;;;;5067255;28;20044;-56
2022/07/13 11:13:12;;;;;;;1.92;0.68;;;37.70;45.50;;;;;;5067280;28;20060;-56
2022/07/13 11:15:55;;;;;;;2.38;0.55;;;36.70;45.80;;;;;;5069268;28;20052;-56
2022/07/13 11:18:35;;;;;;;3.47;0.63;;;35.90;48.40;;;;;;5071105;28;20299;-56
2022/07/13 11:21:01;;;;;;;3.03;0.55;;;35.20;49.20;;;;;;5071561;28;20539;-56
2022/07/13 11:27:05;;;;;;;2.67;1.02;;;34.20;50.20;;;;;;5068019;28;20568;-56
2022/07/13 11:29:48;;;;;;;3.38;0.70;;;33.60;50.40;;;;;;5071350;28;20053;-56
2022/07/13 11:32:18;;;;;;;2.90;0.43;;;33.20;51.90;;;;;;5071343;28;20040;-56
2022/07/13 11:34:47;;;;;;;3.38;1.00;;;32.90;52.90;;;;;;5071549;28;20052;-55
2022/07/13 11:37:13;;;;;;;3.45;0.70;;;32.60;54.10;;;;;;5070728;28;20079;-56
2022/07/13 11:39:39;;;;;;;3.47;0.80;;;32.20;55.20;;;;;;5070532;28;20065;-56
2022/07/13 11:42:06;;;;;;;3.05;0.80;;;31.90;55.60;;;;;;5070726;28;20032;-56
2022/07/13 11:44:33;;;;;;;2.58;0.52;;;31.50;54.90;;;;;;5070974;28;20036;-56
2022/07/13 11:47:02;;;;;;;2.13;0.60;;;31.20;55.60;;;;;;5070640;28;20074;-55
2022/07/13 11:49:28;;;;;;;2.92;0.38;;;31.20;55.10;;;;;;5070259;28;20044;-56
2022/07/13 11:51:54;;;;;;;2.30;0.60;;;31.10;56.00;;;;;;5070672;28;20044;-56
2022/07/13 11:54:22;;;;;;;2.95;0.93;;;31.10;56.80;;;;;;5069920;28;20114;-56
2022/07/13 11:56:58;;;;;;;1.20;0.50;;;31.30;57.00;;;;;;5070193;28;20048;-56
2022/07/13 11:59:42;;;;;;;1.40;0.60;;;31.40;56.30;;;;;;5070278;28;20147;-56
2022/07/13 12:02:12;;;;;;;2.92;0.75;;;31.40;57.60;;;;;;5070288;28;20397;-56
2022/07/13 12:04:42;;;;;;;2.03;0.40;;;31.40;56.30;;;;;;5070117;28;20044;-56
2022/07/13 12:07:14;;;;;;;3.03;0.40;;;31.40;56.00;;;;;;5069634;28;20772;-56
2022/07/13 12:10:06;;;;;;;3.03;0.40;;;31.40;57.20;;;;;;5070010;28;20044;-57
2022/07/13 12:12:42;;;;;;;2.22;0.82;;;31.50;57.40;;;;;;5067433;28;20062;-57
2022/07/13 12:15:09;;;;;;;3.28;0.70;;;31.70;57.10;;;;;;5070248;28;20394;-56
2022/07/13 12:17:42;;;;;;;1.60;0.40;;;31.80;57.70;;;;;;5069385;28;20048;-57
2022/07/13 12:20:11;;;;;;;3.70;0.40;;;31.80;58.20;;;;;;5069807;28;20063;-56
2022/07/13 12:22:37;;;;;;;4.05;0.50;;;31.70;57.70;;;;;;5068410;28;20059;-57
2022/07/13 12:25:03;;;;;;;2.65;0.50;;;31.40;56.70;;;;;;5069733;28;20044;-57
2022/07/13 12:27:29;;;;;;;1.83;0.43;;;31.20;56.90;;;;;;5069453;28;20445;-56
2022/07/13 12:30:11;;;;;;;6.07;0.60;;;31.00;56.60;;;;;;5070057;28;20072;-56
2022/07/13 12:33:06;;;;;;;2.05;0.65;;;30.70;56.20;;;;;;5069901;28;20044;-56
2022/07/13 12:35:35;;;;;;;2.08;0.73;;;30.70;56.50;;;;;;5069613;28;20555;-56
2022/07/13 12:38:08;;;;;;;2.35;0.50;;;30.70;56.80;;;;;;5068109;28;20048;-56
2022/07/13 12:40:39;;;;;;;1.88;0.50;;;30.60;57.60;;;;;;5069193;28;20059;-56
2022/07/13 12:43:15;;;;;;;4.03;0.77;;;30.50;58.70;;;;;;5069249;28;20083;-56
2022/07/13 12:45:41;;;;;;;1.95;0.65;;;30.10;57.00;;;;;;5069620;28;20478;-57
2022/07/13 12:48:17;;;;;;;3.45;0.70;;;29.80;58.20;;;;;;5069600;28;20042;-57
2022/07/13 12:50:54;;;;;;;1.83;0.60;;;29.60;59.30;;;;;;5069580;28;20485;-57
2022/07/13 12:53:19;;;;;;;3.47;0.90;;;29.40;58.70;;;;;;5069470;28;20045;-56
2022/07/13 12:55:55;;;;;;;3.65;0.85;;;29.20;60.10;;;;;;5069219;28;20086;-56
2022/07/13 12:58:47;;;;;;;2.97;0.65;;;29.00;60.50;;;;;;5068935;28;20040;-56
2022/07/13 13:01:29;;;;;;;3.78;0.90;;;28.90;61.20;;;;;;5069082;28;20040;-56
2022/07/13 13:03:55;;;;;;;3.63;0.95;;;28.70;62.20;;;;;;5069059;28;20094;-56
2022/07/13 13:06:21;;;;;;;2.42;0.60;;;28.50;62.90;;;;;;5067117;28;20434;-56